sensor_id;sensor_type;location;lat;lon;timestamp;pressure;altitude;pressure_sealevel;temperature;humidity
17260;BME280;8746;49.230;9.220;2022-10-23T00:01:35;100088.88;;;9.70;100.00
17260;BME280;8746;49.230;9.220;2022-10-23T00:04:03;100094.72;;;9.78;100.00
17260;BME280;8746;49.230;9.220;2022-10-23T00:06:31;100084.38;;;9.74;100.00
17260;BME280;8746;49.230;9.220;2022-10-23T00:08:57;100084.38;;;9.74;100.00
17260;BME280;8746;49.230;9.220;2022-10-23T00:11:25;100077.72;;;9.62;100.00
17260;BME280;8746;49.230;9.220;2022-10-23T00:13:54;100066.59;;;9.54;100.00
17260;BME280;8746;49.230;9.220;2022-10-23T00:16:20;100076.38;;;9.50;100.00
17260;BME280;8746;49.230;9.220;2022-10-23T00:18:45;100073.88;;;9.45;100.00
17260;BME280;8746;49.230;9.220;2022-10-23T00:21:12;100073.88;;;9.45;100.00
17260;BME280;8746;49.230;9.220;2022-10-23T00:23:39;100074.91;;;9.41;100.00
17260;BME280;8746;49.230;9.220;2022-10-23T00:26:05;100068.03;;;9.37;100.00
17260;BME280;8746;49.230;9.220;2022-10-23T00:28:33;100065.34;;;9.39;100.00
17260;BME280;8746;49.230;9.220;2022-10-23T00:31:03;100057.53;;;9.36;100.00
17260;BME280;8746;49.230;9.220;2022-10-23T00:33:28;100058.41;;;9.36;100.00
17260;BME280;8746;49.230;9.220;2022-10-23T00:35:54;100059.94;;;9.42;100.00
17260;BME280;8746;49.230;9.220;2022-10-23T00:38:19;100058.81;;;9.51;100.00
17260;BME280;8746;49.230;9.220;2022-10-23T00:40:45;100049.94;;;9.53;100.00
17260;BME280;8746;49.230;9.220;2022-10-23T00:43:23;100048.06;;;9.57;100.00
17260;BME280;8746;49.230;9.220;2022-10-23T00:45:49;100034.63;;;9.65;100.00
17260;BME280;8746;49.230;9.220;2022-10-23T00:48:16;100034.53;;;9.68;100.00
17260;BME280;8746;49.230;9.220;2022-10-23T00:50:42;100041.69;;;9.62;100.00
17260;BME280;8746;49.230;9.220;2022-10-23T00:53:10;100031.38;;;9.56;100.00
17260;BME280;8746;49.230;9.220;2022-10-23T00:55:38;100022.63;;;9.56;100.00
17260;BME280;8746;49.230;9.220;2022-10-23T00:58:05;100015.72;;;9.52;100.00
17260;BME280;8746;49.230;9.220;2022-10-23T01:00:45;100021.00;;;9.52;100.00
17260;BME280;8746;49.230;9.220;2022-10-23T01:03:13;100026.47;;;9.45;100.00
17260;BME280;8746;49.230;9.220;2022-10-23T01:08:30;100026.38;;;9.49;100.00
17260;BME280;8746;49.230;9.220;2022-10-23T01:11:21;100034.97;;;9.54;100.00
17260;BME280;8746;49.230;9.220;2022-10-23T01:16:52;100040.75;;;9.38;100.00
17260;BME280;8746;49.230;9.220;2022-10-23T01:24:52;100026.00;;;9.34;100.00
17260;BME280;8746;49.230;9.220;2022-10-23T01:27:23;100028.84;;;9.28;100.00
17260;BME280;8746;49.230;9.220;2022-10-23T01:30:11;100027.03;;;9.30;100.00
17260;BME280;8746;49.230;9.220;2022-10-23T01:33:03;100028.00;;;9.26;100.00
17260;BME280;8746;49.230;9.220;2022-10-23T01:35:35;100016.69;;;9.24;100.00
17260;BME280;8746;49.230;9.220;2022-10-23T01:41:01;100011.94;;;9.08;100.00
17260;BME280;8746;49.230;9.220;2022-10-23T01:43:40;100005.00;;;9.06;100.00
17260;BME280;8746;49.230;9.220;2022-10-23T01:46:09;100014.97;;;8.96;100.00
17260;BME280;8746;49.230;9.220;2022-10-23T01:48:36;100020.38;;;8.91;100.00
17260;BME280;8746;49.230;9.220;2022-10-23T01:51:04;100021.34;;;8.89;100.00
17260;BME280;8746;49.230;9.220;2022-10-23T01:53:34;100017.84;;;8.88;100.00
17260;BME280;8746;49.230;9.220;2022-10-23T01:56:02;100023.16;;;8.87;100.00
17260;BME280;8746;49.230;9.220;2022-10-23T01:58:31;100024.03;;;8.87;100.00
17260;BME280;8746;49.230;9.220;2022-10-23T02:01:00;100023.25;;;8.84;100.00
17260;BME280;8746;49.230;9.220;2022-10-23T02:03:30;100013.72;;;8.79;100.00
17260;BME280;8746;49.230;9.220;2022-10-23T02:05:57;100017.13;;;8.83;100.00
17260;BME280;8746;49.230;9.220;2022-10-23T02:08:23;100022.25;;;8.88;100.00
17260;BME280;8746;49.230;9.220;2022-10-23T02:11:10;100013.91;;;8.75;100.00
17260;BME280;8746;49.230;9.220;2022-10-23T02:13:56;100017.31;;;8.77;100.00
17260;BME280;8746;49.230;9.220;2022-10-23T02:16:51;100020.97;;;8.73;100.00
17260;BME280;8746;49.230;9.220;2022-10-23T02:19:24;100017.63;;;8.68;100.00
17260;BME280;8746;49.230;9.220;2022-10-23T02:22:03;100013.16;;;8.70;100.00
17260;BME280;8746;49.230;9.220;2022-10-23T02:24:34;100001.88;;;8.66;100.00
17260;BME280;8746;49.230;9.220;2022-10-23T02:27:04;99999.22;;;8.68;100.00
17260;BME280;8746;49.230;9.220;2022-10-23T02:29:42;99983.38;;;8.69;100.00
17260;BME280;8746;49.230;9.220;2022-10-23T02:32:10;99974.97;;;8.58;100.00
17260;BME280;8746;49.230;9.220;2022-10-23T02:34:36;99985.38;;;8.61;100.00
17260;BME280;8746;49.230;9.220;2022-10-23T02:37:02;99996.81;;;8.60;100.00
17260;BME280;8746;49.230;9.220;2022-10-23T02:39:28;99993.19;;;8.64;100.00
17260;BME280;8746;49.230;9.220;2022-10-23T02:47:54;99978.50;;;8.57;100.00
17260;BME280;8746;49.230;9.220;2022-10-23T02:53:16;99971.25;;;8.65;100.00
17260;BME280;8746;49.230;9.220;2022-10-23T02:56:06;99968.34;;;8.73;100.00
17260;BME280;8746;49.230;9.220;2022-10-23T03:01:25;99959.16;;;8.86;100.00
17260;BME280;8746;49.230;9.220;2022-10-23T03:03:56;99951.22;;;8.88;100.00
17260;BME280;8746;49.230;9.220;2022-10-23T03:06:23;99952.31;;;8.80;100.00
17260;BME280;8746;49.230;9.220;2022-10-23T03:08:52;99950.84;;;8.72;100.00
17260;BME280;8746;49.230;9.220;2022-10-23T03:11:18;99947.72;;;8.60;100.00
17260;BME280;8746;49.230;9.220;2022-10-23T03:13:43;99959.97;;;8.61;100.00
17260;BME280;8746;49.230;9.220;2022-10-23T03:16:09;99952.97;;;8.60;100.00
17260;BME280;8746;49.230;9.220;2022-10-23T03:18:34;99947.66;;;8.62;100.00
17260;BME280;8746;49.230;9.220;2022-10-23T03:21:00;99939.69;;;8.65;100.00
17260;BME280;8746;49.230;9.220;2022-10-23T03:23:26;99953.41;;;8.46;100.00
17260;BME280;8746;49.230;9.220;2022-10-23T03:25:51;99949.19;;;8.41;100.00
17260;BME280;8746;49.230;9.220;2022-10-23T03:28:17;99940.16;;;8.49;100.00
17260;BME280;8746;49.230;9.220;2022-10-23T03:30:43;99940.06;;;8.53;100.00
17260;BME280;8746;49.230;9.220;2022-10-23T03:33:08;99940.81;;;8.56;100.00
17260;BME280;8746;49.230;9.220;2022-10-23T03:35:33;99944.19;;;8.61;100.00
17260;BME280;8746;49.230;9.220;2022-10-23T03:37:59;99938.16;;;8.58;100.00
17260;BME280;8746;49.230;9.220;2022-10-23T03:40:24;99931.81;;;8.63;100.00
17260;BME280;8746;49.230;9.220;2022-10-23T03:42:49;99937.28;;;8.57;100.00
17260;BME280;8746;49.230;9.220;2022-10-23T03:45:15;99939.06;;;8.57;100.00
17260;BME280;8746;49.230;9.220;2022-10-23T03:47:40;99932.94;;;8.56;100.00
17260;BME280;8746;49.230;9.220;2022-10-23T03:50:09;99923.50;;;8.49;100.00
17260;BME280;8746;49.230;9.220;2022-10-23T03:52:35;99926.00;;;8.54;100.00
17260;BME280;8746;49.230;9.220;2022-10-23T03:55:01;99922.91;;;8.39;100.00
17260;BME280;8746;49.230;9.220;2022-10-23T03:57:26;99930.84;;;8.38;100.00
17260;BME280;8746;49.230;9.220;2022-10-23T03:59:51;99937.75;;;8.42;100.00
17260;BME280;8746;49.230;9.220;2022-10-23T04:02:17;99933.44;;;8.39;100.00
17260;BME280;8746;49.230;9.220;2022-10-23T04:04:42;99945.66;;;8.42;100.00
17260;BME280;8746;49.230;9.220;2022-10-23T04:07:08;99931.75;;;8.38;100.00
17260;BME280;8746;49.230;9.220;2022-10-23T04:09:33;99927.38;;;8.37;100.00
17260;BME280;8746;49.230;9.220;2022-10-23T04:11:58;99928.28;;;8.36;100.00
17260;BME280;8746;49.230;9.220;2022-10-23T04:14:24;99931.81;;;8.35;100.00
17260;BME280;8746;49.230;9.220;2022-10-23T04:16:50;99931.75;;;8.38;100.00
17260;BME280;8746;49.230;9.220;2022-10-23T04:19:15;99939.19;;;8.24;100.00
17260;BME280;8746;49.230;9.220;2022-10-23T04:21:41;99941.44;;;8.36;100.00
17260;BME280;8746;49.230;9.220;2022-10-23T04:24:07;99938.81;;;8.36;100.00
17260;BME280;8746;49.230;9.220;2022-10-23T04:26:32;99944.72;;;8.43;100.00
17260;BME280;8746;49.230;9.220;2022-10-23T04:28:58;99942.13;;;8.41;100.00
17260;BME280;8746;49.230;9.220;2022-10-23T04:31:23;99928.91;;;8.44;100.00
17260;BME280;8746;49.230;9.220;2022-10-23T04:33:48;99935.22;;;8.39;100.00
17260;BME280;8746;49.230;9.220;2022-10-23T04:36:14;99938.88;;;8.33;100.00
17260;BME280;8746;49.230;9.220;2022-10-23T04:38:39;99939.84;;;8.30;100.00
17260;BME280;8746;49.230;9.220;2022-10-23T04:41:05;99934.63;;;8.29;100.00
17260;BME280;8746;49.230;9.220;2022-10-23T04:43:30;99935.59;;;8.26;100.00
17260;BME280;8746;49.230;9.220;2022-10-23T04:45:55;99939.25;;;8.21;100.00
17260;BME280;8746;49.230;9.220;2022-10-23T04:48:21;99924.44;;;8.18;100.00
17260;BME280;8746;49.230;9.220;2022-10-23T04:50:54;99922.72;;;8.17;100.00
17260;BME280;8746;49.230;9.220;2022-10-23T04:53:20;99928.16;;;8.11;100.00
17260;BME280;8746;49.230;9.220;2022-10-23T04:55:53;99928.22;;;8.09;100.00
17260;BME280;8746;49.230;9.220;2022-10-23T04:58:19;99918.72;;;8.05;100.00
17260;BME280;8746;49.230;9.220;2022-10-23T05:00:44;99923.09;;;8.05;100.00
17260;BME280;8746;49.230;9.220;2022-10-23T05:03:10;99917.06;;;8.02;100.00
17260;BME280;8746;49.230;9.220;2022-10-23T05:05:36;99918.81;;;8.02;100.00
17260;BME280;8746;49.230;9.220;2022-10-23T05:08:01;99915.22;;;8.05;100.00
17260;BME280;8746;49.230;9.220;2022-10-23T05:10:26;99921.38;;;8.03;100.00
17260;BME280;8746;49.230;9.220;2022-10-23T05:12:52;99923.88;;;8.08;100.00
17260;BME280;8746;49.230;9.220;2022-10-23T05:15:17;99927.31;;;8.10;100.00
17260;BME280;8746;49.230;9.220;2022-10-23T05:17:45;99924.59;;;8.13;100.00
17260;BME280;8746;49.230;9.220;2022-10-23T05:20:15;99926.94;;;8.23;100.00
17260;BME280;8746;49.230;9.220;2022-10-23T05:22:43;99919.91;;;8.23;100.00
17260;BME280;8746;49.230;9.220;2022-10-23T05:25:10;99915.59;;;8.21;100.00
17260;BME280;8746;49.230;9.220;2022-10-23T05:27:37;99919.97;;;8.22;100.00
17260;BME280;8746;49.230;9.220;2022-10-23T05:30:04;99923.09;;;8.33;100.00
17260;BME280;8746;49.230;9.220;2022-10-23T05:32:31;99928.38;;;8.33;100.00
17260;BME280;8746;49.230;9.220;2022-10-23T05:34:57;99923.69;;;8.43;100.00
17260;BME280;8746;49.230;9.220;2022-10-23T05:37:24;99916.88;;;8.37;100.00
17260;BME280;8746;49.230;9.220;2022-10-23T05:39:49;99912.41;;;8.39;100.00
17260;BME280;8746;49.230;9.220;2022-10-23T05:42:15;99917.00;;;8.32;100.00
17260;BME280;8746;49.230;9.220;2022-10-23T05:44:40;99918.81;;;8.30;100.00
17260;BME280;8746;49.230;9.220;2022-10-23T05:47:06;99929.19;;;8.35;100.00
17260;BME280;8746;49.230;9.220;2022-10-23T05:49:32;99920.34;;;8.38;100.00
17260;BME280;8746;49.230;9.220;2022-10-23T05:51:57;99917.56;;;8.42;100.00
17260;BME280;8746;49.230;9.220;2022-10-23T05:54:22;99916.00;;;8.37;100.00
17260;BME280;8746;49.230;9.220;2022-10-23T05:56:48;99910.59;;;8.41;100.00
17260;BME280;8746;49.230;9.220;2022-10-23T05:59:14;99914.19;;;8.39;100.00
17260;BME280;8746;49.230;9.220;2022-10-23T06:01:39;99907.13;;;8.39;100.00
17260;BME280;8746;49.230;9.220;2022-10-23T06:04:05;99910.59;;;8.41;100.00
17260;BME280;8746;49.230;9.220;2022-10-23T06:06:30;99913.16;;;8.43;100.00
17260;BME280;8746;49.230;9.220;2022-10-23T06:08:56;99898.34;;;8.40;100.00
17260;BME280;8746;49.230;9.220;2022-10-23T06:11:22;99896.47;;;8.45;100.00
17260;BME280;8746;49.230;9.220;2022-10-23T06:13:47;99897.50;;;8.40;100.00
17260;BME280;8746;49.230;9.220;2022-10-23T06:16:15;99902.63;;;8.44;100.00
17260;BME280;8746;49.230;9.220;2022-10-23T06:18:41;99904.19;;;8.52;100.00
17260;BME280;8746;49.230;9.220;2022-10-23T06:21:07;99890.00;;;8.56;100.00
17260;BME280;8746;49.230;9.220;2022-10-23T06:23:34;99881.91;;;8.62;100.00
17260;BME280;8746;49.230;9.220;2022-10-23T06:26:00;99884.50;;;8.63;100.00
17260;BME280;8746;49.230;9.220;2022-10-23T06:28:26;99874.94;;;8.61;100.00
17260;BME280;8746;49.230;9.220;2022-10-23T06:30:52;99876.50;;;8.66;100.00
17260;BME280;8746;49.230;9.220;2022-10-23T06:33:17;99873.13;;;8.63;100.00
17260;BME280;8746;49.230;9.220;2022-10-23T06:35:42;99865.84;;;8.71;100.00
17260;BME280;8746;49.230;9.220;2022-10-23T06:38:08;99863.25;;;8.70;100.00
17260;BME280;8746;49.230;9.220;2022-10-23T06:40:35;99855.31;;;8.71;100.00
17260;BME280;8746;49.230;9.220;2022-10-23T06:43:01;99868.28;;;8.76;100.00
17260;BME280;8746;49.230;9.220;2022-10-23T06:45:27;99867.28;;;8.80;100.00
17260;BME280;8746;49.230;9.220;2022-10-23T06:47:54;99862.44;;;8.93;100.00
17260;BME280;8746;49.230;9.220;2022-10-23T06:50:20;99852.75;;;8.95;100.00
17260;BME280;8746;49.230;9.220;2022-10-23T06:52:45;99860.53;;;8.98;100.00
17260;BME280;8746;49.230;9.220;2022-10-23T06:55:10;99860.34;;;9.03;100.00
17260;BME280;8746;49.230;9.220;2022-10-23T06:57:36;99860.91;;;9.12;100.00
17260;BME280;8746;49.230;9.220;2022-10-23T07:00:01;99853.94;;;9.11;100.00
17260;BME280;8746;49.230;9.220;2022-10-23T07:02:27;99854.63;;;9.17;100.00
17260;BME280;8746;49.230;9.220;2022-10-23T07:04:52;99863.50;;;9.14;100.00
17260;BME280;8746;49.230;9.220;2022-10-23T07:07:18;99852.09;;;9.13;100.00
17260;BME280;8746;49.230;9.220;2022-10-23T07:09:43;99854.56;;;9.18;100.00
17260;BME280;8746;49.230;9.220;2022-10-23T07:12:08;99852.75;;;9.20;100.00
17260;BME280;8746;49.230;9.220;2022-10-23T07:14:34;99866.44;;;9.30;100.00
17260;BME280;8746;49.230;9.220;2022-10-23T07:16:59;99859.09;;;9.38;100.00
17260;BME280;8746;49.230;9.220;2022-10-23T07:19:24;99858.19;;;9.39;100.00
17260;BME280;8746;49.230;9.220;2022-10-23T07:21:50;99855.91;;;9.54;100.00
17260;BME280;8746;49.230;9.220;2022-10-23T07:24:16;99862.56;;;9.64;100.00
17260;BME280;8746;49.230;9.220;2022-10-23T07:26:42;99870.78;;;9.78;100.00
17260;BME280;8746;49.230;9.220;2022-10-23T07:29:09;99871.34;;;9.87;100.00
17260;BME280;8746;49.230;9.220;2022-10-23T07:31:35;99867.63;;;9.92;100.00
17260;BME280;8746;49.230;9.220;2022-10-23T07:34:01;99876.38;;;9.93;100.00
17260;BME280;8746;49.230;9.220;2022-10-23T07:36:26;99868.13;;;10.02;100.00
17260;BME280;8746;49.230;9.220;2022-10-23T07:38:52;99869.59;;;10.09;100.00
17260;BME280;8746;49.230;9.220;2022-10-23T07:41:17;99860.56;;;10.15;100.00
17260;BME280;8746;49.230;9.220;2022-10-23T07:43:43;99857.09;;;10.15;100.00
17260;BME280;8746;49.230;9.220;2022-10-23T07:46:08;99866.56;;;10.19;100.00
17260;BME280;8746;49.230;9.220;2022-10-23T07:48:37;99878.66;;;10.24;100.00
17260;BME280;8746;49.230;9.220;2022-10-23T07:51:06;99878.22;;;10.37;100.00
17260;BME280;8746;49.230;9.220;2022-10-23T07:53:33;99871.94;;;10.39;100.00
17260;BME280;8746;49.230;9.220;2022-10-23T07:56:09;99875.63;;;10.57;100.00
17260;BME280;8746;49.230;9.220;2022-10-23T07:58:36;99875.03;;;10.71;100.00
17260;BME280;8746;49.230;9.220;2022-10-23T08:01:03;99873.38;;;10.69;100.00
17260;BME280;8746;49.230;9.220;2022-10-23T08:03:34;99879.84;;;10.62;100.00
17260;BME280;8746;49.230;9.220;2022-10-23T08:06:00;99878.34;;;10.77;100.00
17260;BME280;8746;49.230;9.220;2022-10-23T08:08:25;99872.81;;;10.83;100.00
17260;BME280;8746;49.230;9.220;2022-10-23T08:10:52;99875.03;;;10.92;100.00
17260;BME280;8746;49.230;9.220;2022-10-23T08:13:18;99877.84;;;11.10;100.00
17260;BME280;8746;49.230;9.220;2022-10-23T08:15:48;99874.44;;;11.27;100.00
17260;BME280;8746;49.230;9.220;2022-10-23T08:18:14;99872.91;;;11.42;100.00
17260;BME280;8746;49.230;9.220;2022-10-23T08:20:41;99864.22;;;11.78;100.00
17260;BME280;8746;49.230;9.220;2022-10-23T08:23:08;99852.50;;;11.64;100.00
17260;BME280;8746;49.230;9.220;2022-10-23T08:25:34;99863.38;;;11.77;100.00
17260;BME280;8746;49.230;9.220;2022-10-23T08:27:59;99842.56;;;11.89;100.00
17260;BME280;8746;49.230;9.220;2022-10-23T08:30:26;99841.50;;;11.74;100.00
17260;BME280;8746;49.230;9.220;2022-10-23T08:32:51;99830.72;;;11.97;100.00
17260;BME280;8746;49.230;9.220;2022-10-23T08:35:17;99840.00;;;12.06;100.00
17260;BME280;8746;49.230;9.220;2022-10-23T08:37:43;99843.06;;;12.16;100.00
17260;BME280;8746;49.230;9.220;2022-10-23T08:40:22;99846.06;;;12.27;100.00
17260;BME280;8746;49.230;9.220;2022-10-23T08:43:13;99835.78;;;12.39;100.00
17260;BME280;8746;49.230;9.220;2022-10-23T08:45:55;99830.81;;;12.50;100.00
17260;BME280;8746;49.230;9.220;2022-10-23T08:48:30;99830.53;;;12.74;99.55
17260;BME280;8746;49.230;9.220;2022-10-23T08:51:24;99826.53;;;13.00;97.40
17260;BME280;8746;49.230;9.220;2022-10-23T08:53:53;99823.50;;;12.90;97.41
17260;BME280;8746;49.230;9.220;2022-10-23T08:56:26;99822.63;;;13.07;96.67
17260;BME280;8746;49.230;9.220;2022-10-23T08:59:00;99816.88;;;13.33;95.76
17260;BME280;8746;49.230;9.220;2022-10-23T09:01:42;99809.09;;;13.29;96.24
17260;BME280;8746;49.230;9.220;2022-10-23T09:04:12;99809.13;;;13.12;95.87
17260;BME280;8746;49.230;9.220;2022-10-23T09:12:10;99808.06;;;13.66;94.57
17260;BME280;8746;49.230;9.220;2022-10-23T09:17:33;99814.38;;;14.11;93.52
17260;BME280;8746;49.230;9.220;2022-10-23T09:20:17;99798.75;;;14.37;90.96
17260;BME280;8746;49.230;9.220;2022-10-23T09:22:43;99791.75;;;14.50;89.87
17260;BME280;8746;49.230;9.220;2022-10-23T09:25:11;99793.88;;;14.59;91.13
17260;BME280;8746;49.230;9.220;2022-10-23T09:27:49;99789.78;;;14.84;90.12
17260;BME280;8746;49.230;9.220;2022-10-23T09:32:50;99782.97;;;15.09;87.21
17260;BME280;8746;49.230;9.220;2022-10-23T09:35:23;99785.25;;;15.15;85.87
17260;BME280;8746;49.230;9.220;2022-10-23T09:37:49;99775.56;;;15.14;85.28
17260;BME280;8746;49.230;9.220;2022-10-23T09:40:35;99765.44;;;15.63;85.77
17260;BME280;8746;49.230;9.220;2022-10-23T09:43:11;99752.78;;;16.08;84.38
17260;BME280;8746;49.230;9.220;2022-10-23T09:45:38;99754.25;;;16.40;82.03
17260;BME280;8746;49.230;9.220;2022-10-23T09:48:17;99749.41;;;16.98;80.57
17260;BME280;8746;49.230;9.220;2022-10-23T09:50:52;99749.41;;;17.61;76.82
17260;BME280;8746;49.230;9.220;2022-10-23T09:55:52;99733.31;;;18.11;74.00
17260;BME280;8746;49.230;9.220;2022-10-23T09:58:28;99730.38;;;17.28;77.48
17260;BME280;8746;49.230;9.220;2022-10-23T10:00:54;99733.00;;;17.78;77.57
17260;BME280;8746;49.230;9.220;2022-10-23T10:03:23;99733.75;;;17.81;76.84
17260;BME280;8746;49.230;9.220;2022-10-23T10:06:02;99735.94;;;18.35;75.56
17260;BME280;8746;49.230;9.220;2022-10-23T10:08:38;99740.63;;;18.56;73.07
17260;BME280;8746;49.230;9.220;2022-10-23T10:11:18;99743.13;;;19.04;71.44
17260;BME280;8746;49.230;9.220;2022-10-23T10:14:05;99744.25;;;18.55;71.23
17260;BME280;8746;49.230;9.220;2022-10-23T10:27:51;99744.34;;;19.12;69.91
17260;BME280;8746;49.230;9.220;2022-10-23T10:30:21;99728.69;;;19.62;68.36
17260;BME280;8746;49.230;9.220;2022-10-23T10:33:13;99723.19;;;19.86;65.44
17260;BME280;8746;49.230;9.220;2022-10-23T10:35:56;99728.56;;;19.75;65.90
17260;BME280;8746;49.230;9.220;2022-10-23T10:46:43;99736.06;;;19.49;68.35
17260;BME280;8746;49.230;9.220;2022-10-23T10:49:22;99724.88;;;19.10;68.81
17260;BME280;8746;49.230;9.220;2022-10-23T10:52:02;99721.72;;;19.04;69.54
17260;BME280;8746;49.230;9.220;2022-10-23T10:54:46;99716.03;;;18.98;69.71
17260;BME280;8746;49.230;9.220;2022-10-23T10:57:30;99684.91;;;18.85;67.20
17260;BME280;8746;49.230;9.220;2022-10-23T11:00:00;99669.78;;;18.39;70.18
17260;BME280;8746;49.230;9.220;2022-10-23T11:02:32;99668.72;;;18.64;68.50
17260;BME280;8746;49.230;9.220;2022-10-23T11:05:17;99661.34;;;18.79;68.46
17260;BME280;8746;49.230;9.220;2022-10-23T11:08:06;99659.72;;;18.42;65.94
17260;BME280;8746;49.230;9.220;2022-10-23T11:10:40;99674.31;;;18.61;68.19
17260;BME280;8746;49.230;9.220;2022-10-23T11:13:26;99673.84;;;18.56;66.90
17260;BME280;8746;49.230;9.220;2022-10-23T11:15:55;99691.44;;;18.58;66.63
17260;BME280;8746;49.230;9.220;2022-10-23T11:18:26;99694.09;;;18.58;67.40
17260;BME280;8746;49.230;9.220;2022-10-23T11:21:29;99687.28;;;18.54;69.29
17260;BME280;8746;49.230;9.220;2022-10-23T11:29:44;99687.34;;;19.00;67.71
17260;BME280;8746;49.230;9.220;2022-10-23T11:32:31;99672.41;;;19.09;67.47
17260;BME280;8746;49.230;9.220;2022-10-23T11:37:37;99659.03;;;18.97;66.04
17260;BME280;8746;49.230;9.220;2022-10-23T11:42:32;99642.47;;;18.47;69.49
17260;BME280;8746;49.230;9.220;2022-10-23T11:44:57;99647.91;;;18.34;72.26
17260;BME280;8746;49.230;9.220;2022-10-23T11:52:53;99627.16;;;18.26;71.27
17260;BME280;8746;49.230;9.220;2022-10-23T11:55:23;99628.38;;;18.45;70.37
17260;BME280;8746;49.230;9.220;2022-10-23T11:58:14;99633.72;;;18.45;70.87
17260;BME280;8746;49.230;9.220;2022-10-23T12:00:53;99625.00;;;18.42;71.05
17260;BME280;8746;49.230;9.220;2022-10-23T12:03:31;99622.34;;;18.54;71.73
17260;BME280;8746;49.230;9.220;2022-10-23T12:06:03;99611.88;;;18.28;71.56
17260;BME280;8746;49.230;9.220;2022-10-23T12:08:33;99618.41;;;18.24;72.03
17260;BME280;8746;49.230;9.220;2022-10-23T12:10:59;99604.13;;;18.48;73.45
17260;BME280;8746;49.230;9.220;2022-10-23T12:16:02;99600.59;;;18.70;73.57
17260;BME280;8746;49.230;9.220;2022-10-23T12:18:28;99596.56;;;18.87;74.35
17260;BME280;8746;49.230;9.220;2022-10-23T12:20:58;99597.94;;;18.58;70.37
17260;BME280;8746;49.230;9.220;2022-10-23T12:24:08;99591.13;;;18.54;70.50
17260;BME280;8746;49.230;9.220;2022-10-23T12:26:47;99590.88;;;18.57;71.95
17260;BME280;8746;49.230;9.220;2022-10-23T12:29:35;99594.63;;;18.66;73.49
17260;BME280;8746;49.230;9.220;2022-10-23T12:38:02;99584.66;;;18.80;73.25
17260;BME280;8746;49.230;9.220;2022-10-23T12:40:29;99590.84;;;18.80;72.45
17260;BME280;8746;49.230;9.220;2022-10-23T12:42:57;99572.28;;;19.01;73.14
17260;BME280;8746;49.230;9.220;2022-10-23T12:45:27;99562.88;;;19.07;73.72
17260;BME280;8746;49.230;9.220;2022-10-23T12:47:54;99558.19;;;18.99;73.47
17260;BME280;8746;49.230;9.220;2022-10-23T12:50:22;99562.75;;;19.20;73.77
17260;BME280;8746;49.230;9.220;2022-10-23T12:52:58;99559.59;;;19.15;72.79
17260;BME280;8746;49.230;9.220;2022-10-23T12:55:29;99557.69;;;19.05;nan
17260;BME280;8746;49.230;9.220;2022-10-23T12:57:55;99555.66;;;18.98;72.94
17260;BME280;8746;49.230;9.220;2022-10-23T13:00:22;99555.66;;;18.98;75.04
17260;BME280;8746;49.230;9.220;2022-10-23T13:02:59;99559.88;;;18.89;75.20
17260;BME280;8746;49.230;9.220;2022-10-23T13:05:25;99562.94;;;18.84;74.74
17260;BME280;8746;49.230;9.220;2022-10-23T13:07:51;99557.34;;;18.76;75.64
17260;BME280;8746;49.230;9.220;2022-10-23T13:10:18;99545.22;;;18.72;75.60
17260;BME280;8746;49.230;9.220;2022-10-23T13:13:04;99545.09;;;18.73;77.56
17260;BME280;8746;49.230;9.220;2022-10-23T13:15:41;99540.69;;;18.84;76.09
17260;BME280;8746;49.230;9.220;2022-10-23T13:18:08;99533.38;;;18.97;75.53
17260;BME280;8746;49.230;9.220;2022-10-23T13:20:36;99519.31;;;18.95;73.83
17260;BME280;8746;49.230;9.220;2022-10-23T13:23:29;99514.66;;;19.09;74.04
17260;BME280;8746;49.230;9.220;2022-10-23T13:26:18;99515.41;;;18.99;72.73
17260;BME280;8746;49.230;9.220;2022-10-23T13:28:45;99517.34;;;19.09;72.94
17260;BME280;8746;49.230;9.220;2022-10-23T13:33:43;99501.81;;;19.02;70.87
17260;BME280;8746;49.230;9.220;2022-10-23T13:38:39;99495.97;;;18.97;72.67
17260;BME280;8746;49.230;9.220;2022-10-23T13:41:11;99495.84;;;18.87;73.47
17260;BME280;8746;49.230;9.220;2022-10-23T13:43:37;99489.66;;;18.87;73.17
17260;BME280;8746;49.230;9.220;2022-10-23T13:46:02;99495.47;;;19.03;71.68
17260;BME280;8746;49.230;9.220;2022-10-23T13:48:28;99501.84;;;19.24;72.41
17260;BME280;8746;49.230;9.220;2022-10-23T13:50:57;99503.91;;;19.20;72.85
17260;BME280;8746;49.230;9.220;2022-10-23T13:53:26;99501.63;;;19.15;71.02
17260;BME280;8746;49.230;9.220;2022-10-23T13:55:51;99488.13;;;19.17;71.98
17260;BME280;8746;49.230;9.220;2022-10-23T13:58:17;99482.84;;;19.27;72.07
17260;BME280;8746;49.230;9.220;2022-10-23T14:00:48;99481.28;;;19.24;72.75
17260;BME280;8746;49.230;9.220;2022-10-23T14:03:15;99484.69;;;19.26;71.94
17260;BME280;8746;49.230;9.220;2022-10-23T14:05:41;99479.25;;;19.37;71.23
17260;BME280;8746;49.230;9.220;2022-10-23T14:08:06;99474.56;;;19.30;70.63
17260;BME280;8746;49.230;9.220;2022-10-23T14:10:32;99474.22;;;19.23;71.39
17260;BME280;8746;49.230;9.220;2022-10-23T14:12:57;99484.25;;;19.10;71.37
17260;BME280;8746;49.230;9.220;2022-10-23T14:15:23;99484.94;;;19.23;72.95
17260;BME280;8746;49.230;9.220;2022-10-23T14:17:48;99482.81;;;19.05;74.15
17260;BME280;8746;49.230;9.220;2022-10-23T14:20:14;99478.59;;;19.03;75.99
17260;BME280;8746;49.230;9.220;2022-10-23T14:22:39;99481.31;;;18.92;75.25
17260;BME280;8746;49.230;9.220;2022-10-23T14:25:06;99474.94;;;19.04;72.88
17260;BME280;8746;49.230;9.220;2022-10-23T14:27:31;99475.78;;;19.04;73.88
17260;BME280;8746;49.230;9.220;2022-10-23T14:29:57;99465.75;;;19.18;72.59
17260;BME280;8746;49.230;9.220;2022-10-23T14:32:23;99462.63;;;19.13;73.02
17260;BME280;8746;49.230;9.220;2022-10-23T14:34:50;99462.91;;;18.98;74.14
17260;BME280;8746;49.230;9.220;2022-10-23T14:37:16;99464.88;;;18.96;73.06
17260;BME280;8746;49.230;9.220;2022-10-23T14:39:44;99460.50;;;18.84;75.17
17260;BME280;8746;49.230;9.220;2022-10-23T14:42:09;99459.53;;;18.85;74.89
17260;BME280;8746;49.230;9.220;2022-10-23T14:44:35;99457.31;;;18.90;74.86
17260;BME280;8746;49.230;9.220;2022-10-23T14:47:00;99454.19;;;18.85;77.20
17260;BME280;8746;49.230;9.220;2022-10-23T14:49:27;99455.22;;;18.72;77.96